South Holston Observed Data For Previous 48 Hours

Caption
Day and Hour Reservoir Elevation (behind dam)* Tailwater Elevation (below dam)* Average Hourly Discharge*
2/19/2017 2 AM EST 1,709.00 1,485.58 10
2/19/2017 3 AM EST 1,709.01 1,485.38 10
2/19/2017 4 AM EST 1,709.03 1,485.20 10
2/19/2017 5 AM EST 1,709.03 1,485.06 10
2/19/2017 6 AM EST 1,709.04 1,484.96 10
2/19/2017 7 AM EST 1,709.05 1,484.89 10
2/19/2017 8 AM EST 1,709.06 1,484.85 10
2/19/2017 9 AM EST 1,709.07 1,484.85 10
2/19/2017 10 AM EST 1,709.07 1,486.70 1,310
2/19/2017 11 AM EST 1,709.07 1,486.08 10
2/19/2017 12 PM EST 1,709.08 1,485.86 10
2/19/2017 1 PM EST 1,709.09 1,485.66 10
2/19/2017 2 PM EST 1,709.10 1,485.47 10
2/19/2017 3 PM EST 1,709.11 1,485.28 10
2/19/2017 4 PM EST 1,709.11 1,485.12 10
2/19/2017 5 PM EST 1,709.12 1,484.99 10
2/19/2017 6 PM EST 1,709.14 1,484.91 10
2/19/2017 7 PM EST 1,709.14 1,485.04 10
2/19/2017 8 PM EST 1,709.12 1,489.09 2,421
2/19/2017 9 PM EST 1,709.12 1,486.25 210
2/19/2017 10 PM EST 1,709.14 1,485.98 10
2/19/2017 11 PM EST 1,709.14 1,485.77 10
2/20/2017 12 AM EST 1,709.14 1,485.57 10
2/20/2017 1 AM EST 1,709.15 1,485.37 10
2/20/2017 2 AM EST 1,709.16 1,485.19 10
2/20/2017 3 AM EST 1,709.17 1,485.05 10
2/20/2017 4 AM EST 1,709.18 1,484.95 10
2/20/2017 5 AM EST 1,709.19 1,484.89 10
2/20/2017 6 AM EST 1,709.20 1,484.85 10
2/20/2017 7 AM EST 1,709.21 1,485.00 10
2/20/2017 8 AM EST 1,709.20 1,486.51 1,287
2/20/2017 9 AM EST 1,709.20 1,486.07 10
2/20/2017 10 AM EST 1,709.21 1,485.86 10
2/20/2017 11 AM EST 1,709.23 1,485.65 10
2/20/2017 12 PM EST 1,709.23 1,485.45 10
2/20/2017 1 PM EST 1,709.24 1,485.26 10
2/20/2017 2 PM EST 1,709.25 1,485.10 10
2/20/2017 3 PM EST 1,709.26 1,484.98 10
2/20/2017 4 PM EST 1,709.26 1,484.91 10
2/20/2017 5 PM EST 1,709.27 1,484.86 10
2/20/2017 6 PM EST 1,709.28 1,484.84 10
2/20/2017 7 PM EST 1,709.29 1,484.95 10
2/20/2017 8 PM EST 1,709.27 1,489.11 2,388
2/20/2017 9 PM EST 1,709.27 1,486.26 206
2/20/2017 10 PM EST 1,709.28 1,485.97 10
2/20/2017 11 PM EST 1,709.29 1,485.77 10
2/21/2017 12 AM EST 1,709.29 1,485.56 10
2/21/2017 1 AM EST 1,709.30 1,485.37 10
2/21/2017 2 AM EST 1,709.31 1,485.19 10
2/21/2017 3 AM EST 1,709.32 1,485.05 10
2/21/2017 4 AM EST 1,709.32 1,484.95 10
2/21/2017 5 AM EST 1,709.33 1,484.88 10
2/21/2017 6 AM EST 1,709.33 1,484.85 10
2/21/2017 7 AM EST 1,709.34 1,485.02 10
2/21/2017 8 AM EST 1,709.34 1,486.66 1,330
2/21/2017 9 AM EST 1,709.33 1,486.07 10
2/21/2017 10 AM EST 1,709.35 1,485.86 10
2/21/2017 11 AM EST 1,709.36 1,485.65 10

Elevations are in feet above sea level. Discharges are in cubic feet per second and are reported at the end of the hour.